createdAt,value
2018-08-23T00:00:47.134Z,9.10
2018-08-23T00:04:49.350Z,10.73
2018-08-23T00:08:51.869Z,10.20
2018-08-23T00:12:58.430Z,9.30
2018-08-23T00:17:00.602Z,10.30
2018-08-23T00:21:03.747Z,10.57
2018-08-23T00:25:06.026Z,9.20
2018-08-23T00:29:13.902Z,10.03
2018-08-23T00:33:16.079Z,11.07
2018-08-23T00:37:18.303Z,12.33
2018-08-23T00:41:20.485Z,10.47
2018-08-23T00:45:22.660Z,9.40
2018-08-23T00:49:29.566Z,10.87
2018-08-23T00:53:32.987Z,11.43
2018-08-23T00:57:35.559Z,9.43
2018-08-23T01:01:37.740Z,10.57
2018-08-23T01:05:40.017Z,11.70
2018-08-23T01:09:44.074Z,10.90
2018-08-23T01:13:46.375Z,12.30
2018-08-23T01:17:53.202Z,12.67
2018-08-23T01:21:55.403Z,13.27
2018-08-23T01:25:57.570Z,14.17
2018-08-23T01:29:59.845Z,14.10
2018-08-23T01:34:02.018Z,14.40
2018-08-23T01:38:04.191Z,13.20
2018-08-23T01:42:06.444Z,12.63
2018-08-23T01:46:08.640Z,12.67
2018-08-23T01:50:11.571Z,12.93
2018-08-23T01:54:13.881Z,13.57
2018-08-23T01:58:16.550Z,12.87
2018-08-23T02:02:18.703Z,12.97
2018-08-23T02:06:20.927Z,12.57
2018-08-23T02:10:23.225Z,15.90
2018-08-23T02:14:25.634Z,12.50
2018-08-23T02:18:27.809Z,13.10
2018-08-23T02:22:30.122Z,14.27
2018-08-23T02:26:32.343Z,14.20
2018-08-23T02:30:49.179Z,14.90
2018-08-23T02:34:55.583Z,14.03
2018-08-23T02:38:59.923Z,13.70
2018-08-23T02:43:02.159Z,13.27
2018-08-23T02:47:04.403Z,15.63
2018-08-23T02:51:06.596Z,16.30
2018-08-23T02:55:08.779Z,15.70
2018-08-23T02:59:10.966Z,13.60
2018-08-23T03:03:13.296Z,14.87
2018-08-23T03:07:15.585Z,15.63
2018-08-23T03:11:17.747Z,15.17
2018-08-23T03:15:24.467Z,16.37
2018-08-23T03:19:26.637Z,16.00
2018-08-23T03:23:28.776Z,18.20
2018-08-23T03:27:31.279Z,16.97
2018-08-23T03:31:33.415Z,17.00
2018-08-23T03:35:35.610Z,17.80
2018-08-23T03:39:37.755Z,19.37
2018-08-23T03:43:40.052Z,17.47
2018-08-23T03:47:47.896Z,17.10
2018-08-23T03:51:50.167Z,15.77
2018-08-23T03:56:06.777Z,19.07
2018-08-23T04:00:09.147Z,18.20
2018-08-23T04:04:11.351Z,19.80
2018-08-23T04:08:13.540Z,21.13
2018-08-23T04:12:15.695Z,19.40
2018-08-23T04:16:24.147Z,17.73
2018-08-23T04:20:26.476Z,17.57
2018-08-23T04:24:28.648Z,21.10
2018-08-23T04:28:30.834Z,19.80
2018-08-23T04:32:38.648Z,16.70
2018-08-23T04:36:40.834Z,18.07
2018-08-23T04:40:52.606Z,18.53
2018-08-23T04:44:54.807Z,20.00
2018-08-23T04:48:57.026Z,19.60
2018-08-23T04:52:59.216Z,18.37
2018-08-23T04:57:01.354Z,21.40
2018-08-23T05:01:03.565Z,18.97
2018-08-23T05:05:05.791Z,20.17
2018-08-23T05:09:08.212Z,18.47
2018-08-23T05:13:10.392Z,22.23
2018-08-23T05:17:12.587Z,18.30
2018-08-23T05:21:14.764Z,20.47
2018-08-23T05:25:16.943Z,21.10
2018-08-23T05:29:19.120Z,18.73
2018-08-23T05:33:22.251Z,19.23
2018-08-23T05:37:24.403Z,19.67
2018-08-23T05:41:26.570Z,20.93
2018-08-23T05:45:34.648Z,18.87
2018-08-23T05:49:36.852Z,19.80
2018-08-23T05:53:40.244Z,16.80
2018-08-23T05:57:42.476Z,17.87
2018-08-23T06:01:45.603Z,17.30
2018-08-23T06:05:48.442Z,15.90
2018-08-23T06:09:50.659Z,16.07
2018-08-23T06:13:52.807Z,15.73
2018-08-23T06:17:54.991Z,15.13
2018-08-23T06:21:57.225Z,14.90
2018-08-23T06:25:59.446Z,17.30
2018-08-23T06:30:01.655Z,18.27
2018-08-23T06:34:03.885Z,17.60
2018-08-23T06:38:07.350Z,14.27
2018-08-23T06:42:09.548Z,15.80
2018-08-23T06:46:11.758Z,17.90
2018-08-23T06:50:13.896Z,16.17
2018-08-23T06:54:16.042Z,13.83
2018-08-23T06:58:18.210Z,19.50
2018-08-23T07:02:20.382Z,19.73
2018-08-23T07:06:22.558Z,19.57
2018-08-23T07:10:24.750Z,19.87
2018-08-23T07:14:26.886Z,22.07
2018-08-23T07:18:30.402Z,16.17
2018-08-23T07:22:33.834Z,16.87
2018-08-23T07:26:36.007Z,17.80
2018-08-23T07:30:38.163Z,14.00
2018-08-23T07:34:45.859Z,12.17
2018-08-23T07:38:48.570Z,9.63
2018-08-23T07:42:52.015Z,11.10
2018-08-23T07:46:54.136Z,11.93
2018-08-23T07:50:56.451Z,10.63
2018-08-23T07:54:59.200Z,8.93
2018-08-23T07:59:01.364Z,9.17
2018-08-23T08:03:03.643Z,9.87
2018-08-23T08:07:09.082Z,9.50
2018-08-23T08:11:11.227Z,10.07
2018-08-23T08:15:13.475Z,12.00
2018-08-23T08:19:15.571Z,12.27
2018-08-23T08:23:17.737Z,10.60
2018-08-23T08:27:20.081Z,11.93
2018-08-23T08:31:22.100Z,12.43
2018-08-23T08:35:24.270Z,12.23
2018-08-23T08:39:26.443Z,10.83
2018-08-23T08:43:28.583Z,12.07
2018-08-23T08:47:31.571Z,12.93
2018-08-23T08:51:33.779Z,11.30
2018-08-23T08:55:36.003Z,9.93
2018-08-23T08:59:39.171Z,11.30
2018-08-23T09:03:41.369Z,9.40
2018-08-23T09:07:44.011Z,11.30
2018-08-23T09:11:46.236Z,12.37
2018-08-23T09:15:49.458Z,10.47
2018-08-23T09:20:02.003Z,11.50
2018-08-23T09:24:23.374Z,11.23
2018-08-23T09:28:25.950Z,12.73
2018-08-23T09:32:29.543Z,12.37
2018-08-23T09:36:31.714Z,12.47
2018-08-23T09:40:33.893Z,11.20
2018-08-23T09:45:12.564Z,9.70
2018-08-23T09:49:14.766Z,12.07
2018-08-23T09:53:22.864Z,14.87
2018-08-23T09:57:25.592Z,9.43
2018-08-23T10:01:33.441Z,10.77
2018-08-23T10:05:46.664Z,12.87
2018-08-23T10:11:57.578Z,11.90
2018-08-23T10:16:05.413Z,10.93
2018-08-23T10:20:13.399Z,13.63
2018-08-23T10:24:21.351Z,11.47
2018-08-23T10:28:25.823Z,13.97
2018-08-23T10:32:28.038Z,13.50
2018-08-23T10:36:30.223Z,12.23
2018-08-23T10:40:32.427Z,11.70
2018-08-23T10:44:34.631Z,11.97
2018-08-23T10:48:36.789Z,13.67
2018-08-23T10:52:39.135Z,10.90
2018-08-23T10:56:42.391Z,12.57
2018-08-23T11:00:44.662Z,13.83
2018-08-23T11:04:46.848Z,10.37
2018-08-23T11:08:54.811Z,9.77
2018-08-23T11:13:02.675Z,8.97
2018-08-23T11:17:10.654Z,13.43
2018-08-23T11:21:15.867Z,12.67
2018-08-23T11:25:18.075Z,13.20
2018-08-23T11:29:21.288Z,10.67
2018-08-23T11:33:23.498Z,12.10
2018-08-23T11:37:25.711Z,11.83
2018-08-23T11:41:27.878Z,11.27
2018-08-23T11:45:30.089Z,10.67
2018-08-23T11:49:32.251Z,10.27
2018-08-23T11:53:34.720Z,8.90
2018-08-23T11:57:36.751Z,7.60
2018-08-23T12:01:39.045Z,7.13
2018-08-23T12:05:41.314Z,7.70
2018-08-23T12:09:43.612Z,6.63
2018-08-23T12:13:47.783Z,6.83
2018-08-23T12:17:51.621Z,7.50
2018-08-23T12:21:54.154Z,7.00
2018-08-23T12:25:56.593Z,6.83
2018-08-23T12:30:01.498Z,6.60
2018-08-23T12:34:06.183Z,6.27
2018-08-23T12:38:17.569Z,6.97
2018-08-23T12:42:25.803Z,6.90
2018-08-23T12:46:28.537Z,8.30
2018-08-23T12:50:30.728Z,6.87
2018-08-23T12:54:32.931Z,7.07
2018-08-23T12:58:35.486Z,7.30
2018-08-23T13:02:37.789Z,6.57
2018-08-23T13:06:39.915Z,5.57
2018-08-23T13:10:42.193Z,5.97
2018-08-23T13:14:44.472Z,5.67
2018-08-23T13:18:46.692Z,4.30
2018-08-23T13:22:48.898Z,3.80
2018-08-23T13:26:51.149Z,3.90
2018-08-23T13:30:53.558Z,3.17
2018-08-23T13:34:56.270Z,3.03
2018-08-23T13:38:58.516Z,2.50
2018-08-23T13:43:00.930Z,2.77
2018-08-23T13:47:03.172Z,2.63
2018-08-23T13:51:06.893Z,3.53
2018-08-23T13:55:09.347Z,3.50
2018-08-23T13:59:11.757Z,2.77
2018-08-23T14:03:13.760Z,2.80
2018-08-23T14:07:16.017Z,2.50
2018-08-23T14:11:18.199Z,3.47
2018-08-23T14:15:26.031Z,3.53
2018-08-23T14:19:28.315Z,3.10
2018-08-23T14:23:30.550Z,3.17
2018-08-23T14:27:32.755Z,3.30
2018-08-23T14:31:35.000Z,3.20
2018-08-23T14:35:37.207Z,3.57
2018-08-23T14:39:39.401Z,3.53
2018-08-23T14:43:41.544Z,3.83
2018-08-23T14:47:49.480Z,3.90
2018-08-23T14:51:51.640Z,3.67
2018-08-23T14:55:59.529Z,3.03
2018-08-23T15:00:01.769Z,3.40
2018-08-23T15:04:03.981Z,3.17
2018-08-23T15:08:06.242Z,3.10
2018-08-23T15:12:08.549Z,3.40
2018-08-23T15:16:10.805Z,2.80
2018-08-23T15:20:12.984Z,2.83
2018-08-23T15:24:15.210Z,3.03
2018-08-23T15:28:17.387Z,2.70
2018-08-23T15:32:19.591Z,3.00
2018-08-23T15:36:21.823Z,2.60
2018-08-23T15:40:24.074Z,2.80
2018-08-23T15:44:26.275Z,2.53
2018-08-23T15:48:28.460Z,2.87
2018-08-23T15:52:30.672Z,2.40
2018-08-23T15:56:32.942Z,2.97
2018-08-23T16:00:37.117Z,2.90
2018-08-23T16:04:39.339Z,2.87
2018-08-23T16:08:47.289Z,2.63
2018-08-23T16:12:49.495Z,2.83
2018-08-23T16:16:57.396Z,3.13
2018-08-23T16:21:00.523Z,3.13
2018-08-23T16:25:02.926Z,3.23
2018-08-23T16:29:05.190Z,2.07
2018-08-23T16:33:07.483Z,3.43
2018-08-23T16:37:09.664Z,2.70
2018-08-23T16:41:11.862Z,3.37
2018-08-23T16:45:14.114Z,2.50
2018-08-23T16:49:16.326Z,2.77
2018-08-23T16:53:18.825Z,2.83
2018-08-23T16:57:21.031Z,2.80
2018-08-23T17:01:23.235Z,3.20
2018-08-23T17:05:25.509Z,3.43
2018-08-23T17:09:27.696Z,2.87
2018-08-23T17:13:36.175Z,3.43
2018-08-23T17:17:38.494Z,3.33
2018-08-23T17:21:40.739Z,3.60
2018-08-23T17:25:42.959Z,2.97
2018-08-23T17:29:45.267Z,2.93
2018-08-23T17:33:47.467Z,2.77
2018-08-23T17:37:49.712Z,3.50
2018-08-23T17:41:51.911Z,2.90
2018-08-23T17:45:54.167Z,3.17
2018-08-23T17:49:56.426Z,3.47
2018-08-23T17:53:58.676Z,2.40
2018-08-23T17:58:00.870Z,2.67
2018-08-23T18:02:03.297Z,3.23
2018-08-23T18:06:05.478Z,4.77
2018-08-23T18:10:07.903Z,3.87
2018-08-23T18:14:10.344Z,3.20
2018-08-23T18:18:12.544Z,3.93
2018-08-23T18:22:14.752Z,3.60
2018-08-23T18:26:16.968Z,4.63
2018-08-23T18:30:19.157Z,3.13
2018-08-23T18:34:21.718Z,3.13
2018-08-23T18:38:24.435Z,3.80
2018-08-23T18:42:26.645Z,4.50
2018-08-23T18:46:28.909Z,3.93
2018-08-23T18:50:31.100Z,4.67
2018-08-23T18:54:33.411Z,4.00
2018-08-23T18:58:35.639Z,3.77
2018-08-23T19:02:37.819Z,4.30
2018-08-23T19:06:40.046Z,3.53
2018-08-23T19:10:42.270Z,4.50
2018-08-23T19:14:44.481Z,4.03
2018-08-23T19:18:46.781Z,3.87
2018-08-23T19:22:48.934Z,3.90
2018-08-23T19:35:12.123Z,5.20
2018-08-23T19:39:14.376Z,6.93
2018-08-23T19:43:16.579Z,6.93
2018-08-23T19:47:24.426Z,6.70
2018-08-23T19:51:26.650Z,6.87
2018-08-23T19:55:28.852Z,9.83
2018-08-23T19:59:31.138Z,7.70
2018-08-23T20:03:33.344Z,6.93
2018-08-23T20:07:35.677Z,8.50
2018-08-23T20:11:37.893Z,8.40
2018-08-23T20:15:40.098Z,11.13
2018-08-23T20:19:42.307Z,9.83
2018-08-23T20:23:44.544Z,8.63
2018-08-23T20:27:46.789Z,7.53
2018-08-23T20:31:49.273Z,9.20
2018-08-23T20:35:51.551Z,9.47
2018-08-23T20:39:53.841Z,7.93
2018-08-23T20:43:56.007Z,7.07
2018-08-23T20:47:58.247Z,7.80
2018-08-23T20:52:00.465Z,8.97
2018-08-23T20:56:02.698Z,7.40
2018-08-23T21:00:05.728Z,8.07
2018-08-23T21:04:08.004Z,9.43
2018-08-23T21:08:10.254Z,10.33
2018-08-23T21:12:12.429Z,8.97
2018-08-23T21:16:14.628Z,10.77
2018-08-23T21:20:17.359Z,11.73
2018-08-23T21:24:19.551Z,12.53
2018-08-23T21:28:21.724Z,12.53
2018-08-23T21:32:23.942Z,12.77
2018-08-23T21:36:26.106Z,9.37
2018-08-23T21:40:28.279Z,8.93
2018-08-23T21:44:30.527Z,10.47
2018-08-23T21:48:32.716Z,10.57
2018-08-23T21:52:34.990Z,9.50
2018-08-23T21:56:37.208Z,8.33
2018-08-23T22:00:45.174Z,6.67
2018-08-23T22:04:54.668Z,8.03
2018-08-23T22:08:56.885Z,8.00
2018-08-23T22:12:59.103Z,9.13
2018-08-23T22:17:01.291Z,10.23
2018-08-23T22:21:03.460Z,9.30
2018-08-23T22:25:05.731Z,9.77
2018-08-23T22:29:07.931Z,11.17
2018-08-23T22:33:11.979Z,13.53
2018-08-23T22:37:14.246Z,13.53
2018-08-23T22:41:16.415Z,12.33
2018-08-23T22:45:18.615Z,10.20
2018-08-23T22:49:21.123Z,10.50
2018-08-23T22:53:23.348Z,10.67
2018-08-23T22:57:25.563Z,11.37
2018-08-23T23:01:27.823Z,10.63
2018-08-23T23:05:30.110Z,11.87
2018-08-23T23:09:32.276Z,11.57
2018-08-23T23:13:34.447Z,17.33
2018-08-23T23:17:36.628Z,15.70
2018-08-23T23:21:38.823Z,16.90
2018-08-23T23:25:40.983Z,18.10
2018-08-23T23:29:43.121Z,19.33
2018-08-23T23:33:46.829Z,19.33
2018-08-23T23:37:49.014Z,24.63
2018-08-23T23:41:51.336Z,20.23
2018-08-23T23:45:54.420Z,19.60
2018-08-23T23:49:56.580Z,19.23
2018-08-23T23:53:58.756Z,21.80
2018-08-23T23:58:00.947Z,20.50
